Time;durP1;ratioP1;P1;durP2;ratioP2;P2;SDS_P1;SDS_P2;PMS_P1;PMS_P2;Temp;Humidity;BMP_temperature;BMP_pressure;BME280_temperature;BME280_humidity;BME280_pressure;Samples;Min_cycle;Max_cycle;Signal;HPM_P1;HPM_P2
2021/07/28 00:02:21;;;;;;;0.70;0.60;;;;;;;17.38;100.00;2389.16;5054096;28;20414;-71
2021/07/28 00:04:48;;;;;;;0.70;0.60;;;;;;;17.33;100.00;3245.47;5054032;28;20800;-71
2021/07/28 00:07:15;;;;;;;0.70;0.60;;;;;;;17.36;100.00;3881.00;5049755;28;20436;-71
2021/07/28 00:09:42;;;;;;;0.70;0.60;;;;;;;17.31;100.00;4405.84;5046115;28;20983;-71
2021/07/28 00:12:09;;;;;;;0.70;0.60;;;;;;;17.29;100.00;5199.00;5033164;28;20515;-71
2021/07/28 00:14:36;;;;;;;0.70;0.60;;;;;;;17.29;100.00;5890.69;5034037;28;20501;-71
2021/07/28 00:17:06;;;;;;;0.70;0.70;;;;;;;17.21;100.00;6394.72;5033984;28;20433;-71
2021/07/28 00:19:51;;;;;;;0.70;0.60;;;;;;;17.28;100.00;7299.59;5033948;28;20452;-71
2021/07/28 00:25:05;;;;;;;0.70;0.67;;;;;;;17.26;100.00;8765.25;5045530;28;20428;-71
2021/07/28 00:27:34;;;;;;;0.70;0.60;;;;;;;17.33;100.00;9689.03;5053178;28;20432;-71
2021/07/28 00:30:01;;;;;;;0.70;0.60;;;;;;;17.45;100.00;10522.41;5052250;28;20509;-71
2021/07/28 00:32:28;;;;;;;0.70;0.60;;;;;;;17.41;100.00;11221.97;5034761;28;20441;-72
2021/07/28 00:34:57;;;;;;;0.80;0.80;;;;;;;17.53;100.00;11854.22;5052055;28;20897;-72
2021/07/28 00:37:24;;;;;;;0.70;0.70;;;;;;;17.62;100.00;12772.56;5053479;28;20423;-72
2021/07/28 00:39:52;;;;;;;0.70;0.70;;;;;;;17.66;100.00;13441.72;5035744;28;20449;-71
2021/07/28 00:42:19;;;;;;;0.70;0.70;;;;;;;17.68;100.00;14033.66;5034701;28;20444;-73
2021/07/28 00:44:46;;;;;;;0.70;0.70;;;;;;;17.71;100.00;14869.16;5039650;28;20412;-72
2021/07/28 00:47:15;;;;;;;0.70;0.70;;;;;;;17.70;100.00;15493.94;5032912;28;20449;-71
2021/07/28 00:49:43;;;;;;;0.70;0.60;;;;;;;17.81;100.00;16386.44;5015118;28;20440;-71
2021/07/28 00:52:12;;;;;;;0.70;0.67;;;;;;;17.80;100.00;17126.94;5033048;28;20439;-71
2021/07/28 00:54:39;;;;;;;0.70;0.60;;;;;;;17.80;100.00;17767.78;5031924;28;20851;-71
2021/07/28 00:57:07;;;;;;;0.70;0.60;;;;;;;17.89;100.00;18524.56;5032053;28;20442;-71
2021/07/28 00:59:35;;;;;;;0.70;0.60;;;;;;;17.85;100.00;18905.38;5015084;28;20804;-71
2021/07/28 01:02:02;;;;;;;0.70;0.60;;;;;;;17.90;100.00;19599.69;5048945;28;20865;-72
2021/07/28 01:04:29;;;;;;;0.70;0.70;;;;;;;17.84;100.00;19792.69;5048819;28;20438;-72
2021/07/28 01:06:58;;;;;;;0.70;0.60;;;;;;;17.85;100.00;20668.00;5050464;28;20450;-72
2021/07/28 01:09:28;;;;;;;0.70;0.60;;;;;;;17.94;100.00;20861.19;5031371;28;20475;-72
2021/07/28 01:11:58;;;;;;;0.70;0.60;;;;;;;17.86;100.00;21194.50;5052867;28;20949;-71
2021/07/28 01:14:25;;;;;;;0.70;0.70;;;;;;;17.93;100.00;21404.91;5034944;28;21006;-72
2021/07/28 01:16:54;;;;;;;0.70;0.60;;;;;;;17.88;100.00;21613.28;5050909;28;20436;-72
2021/07/28 01:19:26;;;;;;;0.70;0.60;;;;;;;17.76;100.00;21667.66;5049758;28;20470;-72
2021/07/28 01:21:54;;;;;;;0.70;0.60;;;;;;;17.75;100.00;22064.84;5035215;28;20435;-72
2021/07/28 01:24:22;;;;;;;0.70;0.60;;;;;;;17.84;100.00;22561.88;5052792;28;20436;-71
2021/07/28 01:26:51;;;;;;;0.80;0.80;;;;;;;17.72;100.00;22045.78;5033972;28;20451;-72
2021/07/28 01:29:19;;;;;;;0.80;0.70;;;;;;;17.84;100.00;22705.66;5034665;28;20483;-72
2021/07/28 01:31:47;;;;;;;0.70;0.60;;;;;;;17.80;100.00;23006.84;5051608;28;20437;-72
2021/07/28 01:34:14;;;;;;;0.70;0.60;;;;;;;17.65;100.00;23064.31;5034254;28;20475;-72
2021/07/28 01:36:44;;;;;;;0.70;0.60;;;;;;;17.61;100.00;23650.41;5050874;28;20963;-72
2021/07/28 01:39:11;;;;;;;0.70;0.70;;;;;;;17.65;100.00;25280.47;5052643;28;20463;-72
2021/07/28 01:41:39;;;;;;;0.70;0.60;;;;;;;17.74;100.00;25767.63;5051389;28;20973;-71
2021/07/28 01:44:06;;;;;;;0.70;0.60;;;;;;;17.71;100.00;25807.50;5049846;28;20411;-72
2021/07/28 01:46:33;;;;;;;0.70;0.70;;;;;;;17.72;100.00;26296.00;5052447;28;20515;-72
2021/07/28 01:49:01;;;;;;;0.70;0.70;;;;;;;17.66;100.00;26246.97;5049724;28;20968;-72
2021/07/28 01:51:28;;;;;;;1.17;1.07;;;;;;;17.67;100.00;26458.19;5053000;28;20447;-72
2021/07/28 01:53:56;;;;;;;0.70;0.60;;;;;;;17.62;100.00;26848.84;5032690;28;20471;-72
2021/07/28 01:56:33;;;;;;;0.70;0.60;;;;;;;17.68;100.00;26787.41;5051442;28;20793;-72
2021/07/28 01:59:03;;;;;;;0.70;0.70;;;;;;;17.67;100.00;27599.13;5050482;28;20442;-72
2021/07/28 02:01:30;;;;;;;0.80;0.73;;;;;;;17.69;100.00;27775.25;5050901;28;20989;-72
2021/07/28 02:03:58;;;;;;;0.70;0.60;;;;;;;17.68;100.00;27779.88;5050143;28;20438;-72
2021/07/28 02:06:25;;;;;;;0.70;0.60;;;;;;;17.63;100.00;28327.41;5033641;28;20443;-72
2021/07/28 02:08:52;;;;;;;0.70;0.70;;;;;;;17.70;100.00;28726.88;5031307;28;20466;-71
2021/07/28 02:11:19;;;;;;;0.70;0.60;;;;;;;17.85;100.00;28573.22;5030707;28;20416;-72
2021/07/28 02:13:46;;;;;;;0.70;0.60;;;;;;;17.89;100.00;28351.03;5032325;28;20551;-72
2021/07/28 02:16:14;;;;;;;0.73;0.70;;;;;;;17.84;100.00;27746.84;5032766;28;20949;-72
2021/07/28 02:18:41;;;;;;;0.70;0.60;;;;;;;17.91;100.00;27115.09;5052812;28;20419;-72
2021/07/28 02:21:08;;;;;;;0.70;0.60;;;;;;;17.88;100.00;26013.28;5054620;28;20431;-72
2021/07/28 02:23:37;;;;;;;0.70;0.60;;;;;;;17.85;100.00;25333.59;5055610;28;20488;-72
2021/07/28 02:26:05;;;;;;;0.70;0.60;;;;;;;17.81;100.00;26056.56;5054830;28;20766;-72
2021/07/28 02:28:31;;;;;;;0.70;0.70;;;;;;;17.79;100.00;26541.34;5054756;28;20428;-73
2021/07/28 02:30:58;;;;;;;0.70;0.70;;;;;;;17.85;100.00;25765.31;5042378;28;20448;-72
2021/07/28 02:33:27;;;;;;;0.70;0.60;;;;;;;17.74;100.00;25531.22;5044966;28;20498;-72
2021/07/28 02:35:54;;;;;;;0.70;0.60;;;;;;;17.83;100.00;25263.50;5054637;28;20420;-72
2021/07/28 02:38:20;;;;;;;0.80;0.80;;;;;;;17.94;100.00;24261.06;5054875;28;20450;-72
2021/07/28 02:40:47;;;;;;;0.70;0.70;;;;;;;17.99;100.00;22770.91;5036667;28;20433;-72
2021/07/28 02:43:15;;;;;;;0.70;0.60;;;;;;;17.99;100.00;20632.22;5055397;28;20510;-71
2021/07/28 02:45:45;;;;;;;0.70;0.60;;;;;;;18.03;100.00;18760.66;5051734;28;20884;-72
2021/07/28 02:48:12;;;;;;;0.70;0.60;;;;;;;18.07;100.00;17128.53;5055224;28;20425;-72
2021/07/28 02:50:40;;;;;;;0.70;0.60;;;;;;;17.92;100.00;15559.69;5054867;28;20446;-71
2021/07/28 02:53:07;;;;;;;0.70;0.63;;;;;;;17.98;100.00;15687.19;5055476;28;20518;-72
2021/07/28 02:55:34;;;;;;;0.70;0.60;;;;;;;18.11;100.00;13577.41;5052042;28;20517;-71
2021/07/28 02:58:01;;;;;;;0.70;0.70;;;;;;;18.11;100.00;10466.50;5053480;28;20941;-72
2021/07/28 03:00:28;;;;;;;0.70;0.60;;;;;;;18.02;100.00;8960.06;5032522;28;20510;-72
2021/07/28 03:02:55;;;;;;;0.70;0.70;;;;;;;18.11;100.00;7090.03;5050273;28;20447;-72
2021/07/28 03:05:22;;;;;;;0.70;0.67;;;;;;;18.09;100.00;5024.66;5046673;28;20446;-71
2021/07/28 03:07:50;;;;;;;2.40;1.83;;;;;;;18.14;100.00;2762.34;5054779;28;20447;-72
2021/07/28 03:10:17;;;;;;;0.70;0.60;;;;;;;18.08;100.00;1972.84;5054835;28;20800;-71
2021/07/28 03:12:45;;;;;;;0.70;0.60;;;;;;;18.01;100.00;2467.28;5054720;28;20452;-72
2021/07/28 03:15:12;;;;;;;0.70;0.60;;;;;;;18.10;100.00;1054.22;5054561;28;20470;-72
2021/07/28 03:17:39;;;;;;;0.70;0.60;;;;;;;18.11;100.00;-211.19;5053634;28;20508;-72
2021/07/28 03:20:07;;;;;;;0.70;0.60;;;;;;;18.09;100.00;-1369.19;5053532;28;20440;-72
2021/07/28 03:22:34;;;;;;;0.70;0.60;;;;;;;18.14;100.00;-3454.31;5054134;28;20528;-72
2021/07/28 03:25:03;;;;;;;0.70;0.60;;;;;;;18.00;100.00;-4155.13;5054115;28;20845;-73
2021/07/28 03:27:30;;;;;;;0.70;0.60;;;;;;;17.90;100.00;-3294.16;5054124;28;20435;-72
2021/07/28 03:29:57;;;;;;;0.70;0.60;;;;;;;17.81;100.00;-24.47;5054271;28;20409;-72
2021/07/28 03:32:24;;;;;;;0.70;0.60;;;;;;;17.63;100.00;4486.81;5042883;28;20483;-72
2021/07/28 03:34:51;;;;;;;0.70;0.70;;;;;;;17.63;100.00;8261.88;5033770;28;20981;-72
2021/07/28 03:37:18;;;;;;;0.70;0.60;;;;;;;17.64;100.00;11821.28;5036196;28;20450;-72
2021/07/28 03:39:45;;;;;;;0.70;0.60;;;;;;;17.52;100.00;14566.41;5054435;28;20490;-72
2021/07/28 03:42:13;;;;;;;0.70;0.60;;;;;;;17.38;100.00;18534.50;5053280;28;20479;-72
2021/07/28 03:44:40;;;;;;;0.70;0.70;;;;;;;17.42;100.00;21640.41;5052441;28;20875;-72
2021/07/28 03:47:07;;;;;;;0.80;0.80;;;;;;;17.36;100.00;24270.84;5053848;28;20492;-72
2021/07/28 03:49:34;;;;;;;0.70;0.60;;;;;;;17.43;100.00;26803.47;5054296;28;20437;-72
2021/07/28 03:52:01;;;;;;;0.70;0.63;;;;;;;17.49;100.00;28268.78;5053213;28;20621;-72
2021/07/28 03:54:28;;;;;;;0.70;0.70;;;;;;;17.48;100.00;29234.59;5046309;28;20518;-72
2021/07/28 03:56:55;;;;;;;0.70;0.60;;;;;;;17.48;100.00;31060.59;5034276;28;20428;-72
2021/07/28 03:59:24;;;;;;;0.70;0.70;;;;;;;17.44;100.00;32089.97;5049648;28;20508;-72
2021/07/28 04:01:51;;;;;;;0.70;0.60;;;;;;;17.45;100.00;33354.56;5052594;28;20440;-72
2021/07/28 04:04:19;;;;;;;0.70;0.63;;;;;;;17.57;100.00;34631.22;5053089;28;20495;-72
2021/07/28 04:06:46;;;;;;;0.70;0.60;;;;;;;17.62;100.00;34827.94;5052348;28;20431;-72
2021/07/28 04:09:13;;;;;;;0.70;0.60;;;;;;;17.62;100.00;34539.09;5052978;28;20464;-72
2021/07/28 04:11:39;;;;;;;0.70;0.60;;;;;;;17.75;100.00;34472.69;5052010;28;20438;-72
2021/07/28 04:14:07;;;;;;;0.70;0.60;;;;;;;17.75;100.00;34335.81;5052799;28;20443;-72
2021/07/28 04:16:35;;;;;;;0.70;0.60;;;;;;;17.81;100.00;33793.75;5035935;28;20432;-72
2021/07/28 04:19:02;;;;;;;0.70;0.70;;;;;;;17.79;100.00;33066.19;5032235;28;20438;-72
2021/07/28 04:21:29;;;;;;;0.70;0.67;;;;;;;17.75;100.00;32919.53;5031915;28;20486;-72
2021/07/28 04:23:56;;;;;;;0.70;0.60;;;;;;;17.80;100.00;31861.41;5032211;28;20452;-72
2021/07/28 04:26:23;;;;;;;0.70;0.60;;;;;;;17.90;100.00;31671.63;5032223;28;20429;-73
2021/07/28 04:28:50;;;;;;;0.70;0.70;;;;;;;17.92;100.00;30668.50;5032201;28;20944;-72
2021/07/28 04:31:17;;;;;;;0.70;0.60;;;;;;;17.92;100.00;29525.81;5035374;28;20494;-72
2021/07/28 04:33:46;;;;;;;0.80;0.70;;;;;;;17.97;100.00;28535.38;5043454;28;20445;-72
2021/07/28 04:36:13;;;;;;;0.70;0.70;;;;;;;17.95;100.00;26654.59;5053206;28;20455;-72
2021/07/28 04:38:40;;;;;;;0.70;0.60;;;;;;;17.96;100.00;24894.09;5051473;28;21058;-72
2021/07/28 04:41:07;;;;;;;0.70;0.63;;;;;;;17.97;100.00;23717.78;5053099;28;20431;-72
2021/07/28 04:43:34;;;;;;;0.70;0.60;;;;;;;18.01;100.00;23149.34;5052982;28;20926;-72
2021/07/28 04:46:02;;;;;;;0.70;0.60;;;;;;;18.14;100.00;22158.50;5038014;28;20536;-72
2021/07/28 04:48:30;;;;;;;0.70;0.60;;;;;;;18.17;100.00;19956.72;5049754;28;20472;-72
2021/07/28 04:50:59;;;;;;;0.70;0.70;;;;;;;18.20;100.00;17740.81;5051205;28;20493;-72
2021/07/28 04:53:29;;;;;;;0.70;0.60;;;;;;;18.22;100.00;15008.00;5050063;28;20831;-73
2021/07/28 04:55:57;;;;;;;0.70;0.70;;;;;;;18.24;100.00;11537.09;5052073;28;20829;-72
2021/07/28 04:58:25;;;;;;;0.70;0.60;;;;;;;18.18;100.00;7692.25;5051460;28;20454;-72
2021/07/28 05:00:53;;;;;;;0.70;0.67;;;;;;;18.22;100.00;5085.41;5052536;28;20447;-72
2021/07/28 05:03:20;;;;;;;0.70;0.70;;;;;;;18.20;100.00;3501.09;5036059;28;20439;-72
2021/07/28 05:05:47;;;;;;;0.70;0.60;;;;;;;18.28;100.00;1722.09;5044301;28;20434;-72
2021/07/28 05:08:15;;;;;;;0.70;0.60;;;;;;;18.35;100.00;-69.25;5052621;28;20507;-72
2021/07/28 05:10:42;;;;;;;0.70;0.70;;;;;;;18.39;100.00;-2645.69;5053127;28;20447;-72
2021/07/28 05:13:09;;;;;;;0.73;0.60;;;;;;;18.44;100.00;-4445.63;5051862;28;20437;-72
2021/07/28 05:15:36;;;;;;;0.70;0.70;;;;;;;18.35;100.00;-5724.75;5052543;28;20466;-72
2021/07/28 05:18:03;;;;;;;0.70;0.70;;;;;;;18.42;100.00;-6428.06;5052107;28;20442;-73
2021/07/28 05:20:30;;;;;;;0.80;0.70;;;;;;;18.52;100.00;-9250.13;5052310;28;20533;-72
2021/07/28 05:22:58;;;;;;;0.70;0.60;;;;;;;18.62;100.00;-12327.50;5051120;28;20452;-72
2021/07/28 05:25:28;;;;;;;0.70;0.60;;;;;;;18.68;100.00;-15742.81;5052724;28;20927;-72
2021/07/28 05:27:55;;;;;;;0.70;0.60;;;;;;;18.73;100.00;-19208.28;5050907;28;20422;-72
2021/07/28 05:30:22;;;;;;;0.70;0.60;;;;;;;18.62;100.00;-20484.47;5052227;28;20427;-72
2021/07/28 05:32:49;;;;;;;0.80;0.70;;;;;;;18.72;100.00;-21047.97;5035441;28;20543;-72
2021/07/28 05:35:16;;;;;;;0.70;0.60;;;;;;;18.81;100.00;-21191.75;5031144;28;20512;-72
2021/07/28 05:37:43;;;;;;;0.70;0.60;;;;;;;18.81;100.00;-21191.75;5046716;28;21013;-72
2021/07/28 05:40:11;;;;;;;0.70;0.70;;;;;;;18.75;100.00;-21190.25;5051068;28;20465;-72
2021/07/28 05:42:39;;;;;;;0.70;0.60;;;;;;;18.74;100.00;-21189.97;5026490;28;20957;-72
2021/07/28 05:45:07;;;;;;;0.70;0.67;;;;;;;18.88;100.00;-21193.53;5052131;28;20461;-72
2021/07/28 05:47:34;;;;;;;0.70;0.70;;;;;;;19.01;100.00;-21197.09;5051991;28;20481;-72
2021/07/28 05:50:01;;;;;;;0.70;0.60;;;;;;;19.08;100.00;-21198.88;5051215;28;20549;-72
2021/07/28 05:52:28;;;;;;;0.80;0.70;;;;;;;19.14;100.00;-21200.66;5054833;28;20435;-72
2021/07/28 05:54:55;;;;;;;0.70;0.60;;;;;;;19.22;100.00;-21202.84;5052478;28;20459;-72
2021/07/28 05:57:22;;;;;;;0.70;0.60;;;;;;;19.40;100.00;-21207.63;5055533;28;20436;-72
2021/07/28 05:59:50;;;;;;;0.70;0.70;;;;;;;19.26;100.00;-21203.94;5055248;28;20497;-72
2021/07/28 06:02:17;;;;;;;0.70;0.70;;;;;;;19.35;100.00;-21206.13;5054723;28;20493;-72
2021/07/28 06:04:44;;;;;;;0.70;0.60;;;;;;;19.33;100.00;-21205.56;5055405;28;20827;-72
2021/07/28 06:07:12;;;;;;;0.80;0.70;;;;;;;19.42;100.00;-21208.03;5038302;28;21011;-72
2021/07/28 06:09:40;;;;;;;0.70;0.70;;;;;;;19.46;100.00;-21209.13;5055468;28;20463;-72
2021/07/28 06:12:08;;;;;;;0.73;0.70;;;;;;;19.55;100.00;-21211.72;5037103;28;20807;-71
2021/07/28 06:14:35;;;;;;;0.80;0.70;;;;;;;19.43;100.00;-21208.44;5037734;28;20956;-72
2021/07/28 06:17:05;;;;;;;0.70;0.70;;;;;;;19.56;100.00;-21211.84;5035816;28;20761;-72
2021/07/28 06:19:32;;;;;;;0.80;0.70;;;;;;;19.49;100.00;-21209.94;5035524;28;20441;-72
2021/07/28 06:21:59;;;;;;;0.70;0.60;;;;;;;19.33;100.00;-21205.72;5035215;28;20438;-72
2021/07/28 06:24:26;;;;;;;0.70;0.60;;;;;;;19.50;100.00;-21210.22;5035842;28;20441;-72
2021/07/28 06:26:54;;;;;;;0.70;0.60;;;;;;;19.53;100.00;-21211.03;5035877;28;20413;-72
2021/07/28 06:29:25;;;;;;;0.80;0.73;;;;;;;19.52;100.00;-21210.75;5051534;28;20448;-72
2021/07/28 06:31:52;;;;;;;0.70;0.60;;;;;;;19.67;100.00;-21214.72;5040062;28;20738;-71
2021/07/28 06:34:21;;;;;;;0.70;0.60;;;;;;;19.72;100.00;-21216.25;5035165;28;20418;-72
2021/07/28 06:36:48;;;;;;;0.70;0.67;;;;;;;20.01;100.00;-21223.88;5035475;28;20459;-71
2021/07/28 06:39:15;;;;;;;1.63;0.90;;;;;;;20.21;100.00;-21229.22;5033631;28;20448;-71
2021/07/28 06:41:42;;;;;;;0.70;0.60;;;;;;;20.24;100.00;-21230.16;5035806;28;20408;-71
2021/07/28 06:44:09;;;;;;;0.80;0.70;;;;;;;20.20;100.00;-21229.06;5034165;28;20528;-72
2021/07/28 06:46:36;;;;;;;0.70;0.60;;;;;;;20.21;100.00;-21229.34;5033515;28;20551;-72
2021/07/28 06:49:03;;;;;;;0.70;0.60;;;;;;;20.27;100.00;-21231.00;5033419;28;20807;-72
2021/07/28 06:51:32;;;;;;;0.70;0.60;;;;;;;20.39;100.00;-21234.00;5035348;28;20428;-72
2021/07/28 06:53:59;;;;;;;0.70;0.70;;;;;;;20.38;100.00;-21233.84;5046731;28;20431;-73
2021/07/28 06:56:27;;;;;;;0.70;0.60;;;;;;;20.29;100.00;-21231.41;5028183;28;20474;-73
2021/07/28 06:58:54;;;;;;;0.80;0.80;;;;;;;20.24;100.00;-21230.03;5053557;28;20833;-72
2021/07/28 07:01:21;;;;;;;0.70;0.67;;;;;;;20.27;100.00;-21231.00;5055035;28;20436;-72
2021/07/28 07:03:48;;;;;;;0.70;0.60;;;;;;;20.37;100.00;-21233.44;5054018;28;20465;-73
2021/07/28 07:06:23;;;;;;;0.80;0.70;;;;;;;20.56;100.00;-21238.66;5037369;28;20497;-72
2021/07/28 07:08:52;;;;;;;0.80;0.60;;;;;;;20.74;100.00;-21243.56;5053081;28;20462;-73
2021/07/28 07:11:40;;;;;;;0.70;0.60;;;;;;;20.97;100.00;-21249.56;5054082;28;20767;-72
2021/07/28 07:14:08;;;;;;;0.70;0.60;;;;;;;20.82;100.00;-21245.47;5053764;28;20431;-72
2021/07/28 07:16:35;;;;;;;0.70;0.60;;;;;;;20.92;100.00;-21248.19;5054752;28;20956;-73
2021/07/28 07:19:02;;;;;;;0.80;0.70;;;;;;;21.10;100.00;-21253.09;5054752;28;20872;-72
2021/07/28 07:21:29;;;;;;;0.70;0.60;;;;;;;21.21;100.00;-21255.97;5052922;28;20480;-72
2021/07/28 07:23:57;;;;;;;0.70;0.60;;;;;;;21.52;100.00;-21264.28;5054025;28;20411;-73
2021/07/28 07:26:25;;;;;;;0.77;0.70;;;;;;;21.45;100.00;-21262.53;5054097;28;20486;-72
2021/07/28 07:28:51;;;;;;;0.70;0.60;;;;;;;21.33;100.00;-21259.09;5047676;28;20528;-73
2021/07/28 07:31:18;;;;;;;0.70;0.60;;;;;;;21.22;100.00;-21256.38;5036524;28;20919;-72
2021/07/28 07:33:45;;;;;;;0.70;0.60;;;;;;;21.12;100.00;-21253.66;5045268;28;20427;-73
2021/07/28 07:36:22;;;;;;;0.70;0.60;;;;;;;20.93;100.00;-21248.59;5043859;28;20445;-72
2021/07/28 07:38:49;;;;;;;0.70;0.60;;;;;;;21.07;100.00;-21252.28;5044667;28;20953;-72
2021/07/28 07:41:18;;;;;;;0.70;0.60;;;;;;;21.33;100.00;-21259.09;5042827;28;20384;-72
2021/07/28 07:43:47;;;;;;;0.70;0.70;;;;;;;21.35;100.00;-21259.78;5032837;28;20540;-72
2021/07/28 07:46:14;;;;;;;0.80;0.70;;;;;;;21.44;100.00;-21262.13;5042538;28;20903;-73
2021/07/28 07:48:41;;;;;;;0.80;0.70;;;;;;;21.59;100.00;-21266.19;5042704;28;20419;-72
2021/07/28 07:51:08;;;;;;;0.70;0.60;;;;;;;21.34;100.00;-21259.38;5042102;28;20798;-72
2021/07/28 07:53:35;;;;;;;0.80;0.70;;;;;;;21.01;100.00;-21250.66;5032830;28;20460;-72
2021/07/28 07:56:05;;;;;;;0.70;0.60;;;;;;;20.87;100.00;-21246.84;5049497;28;20438;-73
2021/07/28 07:58:34;;;;;;;0.80;0.60;;;;;;;20.81;100.00;-21245.19;5054072;28;20387;-73
2021/07/28 08:01:05;;;;;;;0.70;0.60;;;;;;;20.59;100.00;-21239.47;5052237;28;20439;-72
2021/07/28 08:03:32;;;;;;;0.70;0.60;;;;;;;20.26;100.00;-21230.72;5034109;28;20432;-72
2021/07/28 08:05:59;;;;;;;0.70;0.60;;;;;;;20.20;100.00;-21229.06;5039647;28;20498;-73
2021/07/28 08:08:26;;;;;;;0.70;0.60;;;;;;;20.09;100.00;-21226.06;5045461;28;20427;-72
2021/07/28 08:10:55;;;;;;;0.80;0.60;;;;;;;20.19;100.00;-21228.81;5044425;28;20757;-73
2021/07/28 08:13:23;;;;;;;0.70;0.60;;;;;;;20.39;100.00;-21234.00;5049429;28;20477;-72
2021/07/28 08:15:52;;;;;;;0.70;0.70;;;;;;;20.53;100.00;-21237.81;5038374;28;20950;-71
2021/07/28 08:18:19;;;;;;;0.70;0.70;;;;;;;20.66;100.00;-21241.38;5044441;28;20785;-72
2021/07/28 08:20:50;;;;;;;0.70;0.60;;;;;;;21.15;100.00;-21254.47;5040470;28;20403;-72
2021/07/28 08:23:17;;;;;;;0.70;0.60;;;;;;;21.31;100.00;-21258.56;5042842;28;20440;-72
2021/07/28 08:25:43;;;;;;;0.70;0.60;;;;;;;21.59;100.00;-21266.06;5049431;28;20436;-72
2021/07/28 08:28:12;;;;;;;0.80;0.70;;;;;;;22.43;100.00;-21288.56;5051889;28;20428;-72
2021/07/28 08:30:39;;;;;;;0.80;0.70;;;;;;;22.70;100.00;-21295.75;5051751;28;20517;-72
2021/07/28 08:33:08;;;;;;;0.70;0.60;;;;;;;22.32;100.00;-21285.56;5052028;28;20447;-72
2021/07/28 08:35:35;;;;;;;0.70;0.60;;;;;;;21.64;100.00;-21267.56;5053184;28;20579;-72
2021/07/28 08:38:04;;;;;;;0.70;0.60;;;;;;;21.18;100.00;-21255.28;5052758;28;20437;-72
2021/07/28 08:40:31;;;;;;;0.70;0.70;;;;;;;20.51;100.00;-21237.28;5045391;28;20427;-72
2021/07/28 08:43:00;;;;;;;0.70;0.70;;;;;;;20.85;100.00;-21246.28;5034089;28;20499;-72
2021/07/28 08:45:27;;;;;;;0.80;0.70;;;;;;;20.95;100.00;-21249.00;5031224;28;20404;-72
2021/07/28 08:47:55;;;;;;;0.70;0.60;;;;;;;21.49;100.00;-21263.34;5034481;28;20437;-72
2021/07/28 08:50:26;;;;;;;0.80;0.70;;;;;;;22.16;100.00;-21281.47;5051148;28;21009;-72
2021/07/28 08:52:55;;;;;;;0.80;0.73;;;;;;;22.82;100.00;-21298.88;5049736;28;20456;-72
2021/07/28 08:55:22;;;;;;;0.70;0.60;;;;;;;22.98;100.00;-21303.25;5042750;28;20454;-72
2021/07/28 08:57:49;;;;;;;0.80;0.60;;;;;;;22.90;100.00;-21301.22;5024983;28;20425;-72
2021/07/28 09:00:16;;;;;;;0.70;0.50;;;;;;;23.30;100.00;-21311.69;5044921;28;20432;-73
2021/07/28 09:02:44;;;;;;;0.80;0.60;;;;;;;23.61;100.00;-21319.97;5044330;28;21027;-73
2021/07/28 09:05:11;;;;;;;0.70;0.60;;;;;;;23.54;100.00;-21318.22;5044285;28;20425;-73
2021/07/28 09:07:40;;;;;;;0.70;0.50;;;;;;;23.64;100.00;-21320.78;5044497;28;20432;-73
2021/07/28 09:10:12;;;;;;;0.70;0.50;;;;;;;23.50;100.00;-21317.13;5050891;28;20479;-73
2021/07/28 09:12:42;;;;;;;0.80;0.67;;;;;;;23.22;100.00;-21309.50;5047319;28;20424;-73
2021/07/28 09:15:10;;;;;;;0.70;0.60;;;;;;;22.79;100.00;-21298.22;5041885;28;20437;-74
2021/07/28 09:17:44;;;;;;;0.70;0.60;;;;;;;22.50;100.00;-21290.47;5041195;28;20527;-73
2021/07/28 09:20:22;;;;;;;0.70;0.50;;;;;;;22.56;100.00;-21292.09;5042755;28;20455;-73
2021/07/28 09:22:51;;;;;;;0.70;0.60;;;;;;;22.61;100.00;-21293.31;5044437;28;20444;-73
2021/07/28 09:25:31;;;;;;;0.70;0.50;;;;;;;22.85;100.00;-21299.84;5050495;28;20503;-72
2021/07/28 09:27:58;;;;;;;0.70;0.60;;;;;;;23.10;100.00;-21306.50;5046468;28;20936;-73
2021/07/28 09:30:33;;;;;;;0.70;0.60;;;;;;;23.42;100.00;-21314.81;5046784;28;20444;-73
2021/07/28 09:33:05;;;;;;;0.70;0.60;;;;;;;23.84;100.00;-21326.09;5049880;28;20451;-73
2021/07/28 09:36:08;;;;;;;0.70;0.60;;;;;;;24.40;100.00;-21341.03;5054247;28;20444;-74
2021/07/28 09:38:43;;;;;;;0.70;0.60;;;;;;;24.53;100.00;-21344.56;5038712;28;20452;-72
2021/07/28 09:41:12;;;;;;;0.70;0.50;;;;;;;25.57;100.00;-21371.97;5039075;28;20418;-73
2021/07/28 09:43:46;;;;;;;0.70;0.50;;;;;;;26.35;100.00;-21392.81;5054629;28;20518;-74
2021/07/28 09:46:29;;;;;;;0.70;0.50;;;;;;;25.23;100.00;-21363.16;5049732;28;20432;-73
2021/07/28 09:48:57;;;;;;;0.70;0.50;;;;;;;26.46;100.00;-21395.81;5049636;28;20433;-74
2021/07/28 09:51:27;;;;;;;0.70;0.50;;;;;;;26.98;100.00;-21409.59;5046685;28;20438;-74
2021/07/28 09:53:58;;;;;;;0.70;0.50;;;;;;;26.63;100.00;-21400.13;5043858;28;20461;-74
2021/07/28 09:56:32;;;;;;;0.70;0.50;;;;;;;26.98;100.00;-21409.59;5044786;28;20459;-73
2021/07/28 09:58:59;;;;;;;0.70;0.50;;;;;;;26.79;100.00;-21404.47;5045644;28;20781;-71
2021/07/28 10:01:28;;;;;;;0.70;0.50;;;;;;;25.87;100.00;-21380.09;5040118;28;20877;-72
2021/07/28 10:03:59;;;;;;;0.70;0.50;;;;;;;24.57;100.00;-21345.53;5045668;28;20421;-71
2021/07/28 10:06:33;;;;;;;0.70;0.50;;;;;;;24.52;100.00;-21344.16;5046078;28;20436;-73
2021/07/28 10:09:04;;;;;;;0.70;0.60;;;;;;;24.17;100.00;-21334.78;5045803;28;20471;-73
2021/07/28 10:11:36;;;;;;;0.70;0.50;;;;;;;25.79;100.00;-21377.94;5045290;28;20466;-73
2021/07/28 10:14:04;;;;;;;0.70;0.50;;;;;;;25.91;100.00;-21381.19;5045107;28;20496;-72
2021/07/28 10:16:32;;;;;;;0.70;0.50;;;;;;;25.46;100.00;-21369.25;5042919;28;20883;-72
2021/07/28 10:19:03;;;;;;;0.70;0.50;;;;;;;25.21;100.00;-21362.47;5044151;28;20506;-72
2021/07/28 10:21:41;;;;;;;0.70;0.50;;;;;;;24.30;100.00;-21338.31;5044688;28;20437;-72
2021/07/28 10:24:11;;;;;;;0.70;0.50;;;;;;;23.66;100.00;-21321.19;5044684;28;20444;-72
2021/07/28 10:26:40;;;;;;;0.70;0.50;;;;;;;23.66;100.00;-21321.19;5048444;28;20412;-73
2021/07/28 10:29:09;;;;;;;0.70;0.60;;;;;;;23.29;100.00;-21311.41;5046239;28;20478;-72
2021/07/28 10:31:47;;;;;;;0.80;0.67;;;;;;;22.77;100.00;-21297.66;5044289;28;20495;-72
2021/07/28 10:34:23;;;;;;;0.70;0.60;;;;;;;24.32;100.00;-21338.88;5043892;28;20543;-73
2021/07/28 10:36:54;;;;;;;0.70;0.50;;;;;;;25.74;100.00;-21376.72;5043330;28;21039;-72
2021/07/28 10:39:41;;;;;;;0.70;0.50;;;;;;;27.07;100.00;-21411.78;5044874;28;20447;-72
2021/07/28 10:42:14;;;;;;;0.70;0.50;;;;;;;26.97;100.00;-21409.34;5045074;28;20928;-73
2021/07/28 10:45:02;;;;;;;0.70;0.50;;;;;;;25.86;100.00;-21379.81;5046909;28;20985;-73
2021/07/28 10:47:43;;;;;;;0.70;0.50;;;;;;;24.54;100.00;-21344.84;5040730;28;20417;-73
2021/07/28 10:50:43;;;;;;;0.70;0.50;;;;;;;24.99;100.00;-21356.63;5032967;28;20447;-75
2021/07/28 10:53:10;;;;;;;0.70;0.50;;;;;;;25.72;100.00;-21376.03;5017713;28;20464;-73
2021/07/28 10:55:38;;;;;;;0.70;0.50;;;;;;;26.32;100.00;-21392.00;5033607;28;20475;-72
2021/07/28 10:58:24;;;;;;;0.90;0.80;;;;;;;25.84;100.00;-21379.16;5035276;28;20487;-72
2021/07/28 11:00:58;;;;;;;0.70;0.50;;;;;;;26.27;100.00;-21390.78;5034872;28;20424;-72
2021/07/28 11:03:36;;;;;;;0.70;0.50;;;;;;;27.21;100.00;-21415.56;5051301;28;20506;-72
2021/07/28 11:06:18;;;;;;;0.70;0.50;;;;;;;27.86;100.00;-21432.72;5036019;28;20451;-73
2021/07/28 11:08:45;;;;;;;0.70;0.50;;;;;;;27.77;100.00;-21430.41;5050082;28;20444;-73
2021/07/28 11:11:27;;;;;;;0.70;0.50;;;;;;;27.81;100.00;-21431.50;5055169;28;20877;-72
2021/07/28 11:13:58;;;;;;;0.70;0.50;;;;;;;28.55;100.00;-21450.94;5054238;28;20427;-72
2021/07/28 11:16:28;;;;;;;0.70;0.50;;;;;;;28.10;100.00;-21439.06;5054216;28;20459;-71
2021/07/28 11:18:56;;;;;;;0.70;0.50;;;;;;;27.24;100.00;-21416.38;5054890;28;20428;-72
2021/07/28 11:21:29;;;;;;;0.70;0.50;;;;;;;27.23;100.00;-21415.97;5050322;28;20478;-73
2021/07/28 11:24:00;;;;;;;0.70;0.50;;;;;;;27.28;100.00;-21417.31;5038618;28;20914;-72
2021/07/28 11:26:34;;;;;;;0.70;0.50;;;;;;;27.04;100.00;-21411.09;5049471;28;20447;-72
2021/07/28 11:29:05;;;;;;;0.70;0.50;;;;;;;26.71;100.00;-21402.31;5054633;28;20428;-72
2021/07/28 11:31:36;;;;;;;0.70;0.50;;;;;;;25.77;100.00;-21377.38;5053502;28;20413;-74
2021/07/28 11:34:12;;;;;;;0.70;0.50;;;;;;;25.45;100.00;-21368.97;5053213;28;20428;-74